Terminal Aerodrome Forecast
Issued by NWS

Home | Current Version | Previous Version | Text Only | Print | Product List | Glossary On
Versions: 1 2 3 4 5 6 7 8 9 10 11 12 13 14 15 16 17 18 19 20 21 22
000
FTUS41 KPBZ 242103 AAA
TAFFKL
TAF AMD
KFKL 242103Z 2421/2518 23008KT P6SM VCSH BKN050
     FM250300 20004KT P6SM SCT020 BKN080
     FM250600 22003KT 4SM BR BKN025
     FM251400 26008KT P6SM SCT025
      AMD LTD TO CLD VIS AND WIND=

USA.gov is the U.S. government's official web portal to all federal, state and local government web resources and services.